Time,TemperatureF,DewpointF,PressureIn,WindDirection,WindDirectionDegrees,WindSpeedMPH,WindSpeedGustMPH,Humidity,HourlyPrecipIn,Conditions,Clouds,dailyrainin,SoftwareType,DateUTC
2013-01-19 00:02:00,54.0,14.0,-100.00,ENE,75,12.0,20.0,20,-99.99,,,-99.99,,2013-01-19 08:02:00,
2013-01-19 00:12:00,54.0,14.0,-100.00,ENE,75,13.0,20.0,20,-99.99,,,-99.99,,2013-01-19 08:12:00,
2013-01-19 00:22:00,54.0,14.0,-100.00,ENE,75,14.0,21.0,20,-99.99,,,-99.99,,2013-01-19 08:22:00,
2013-01-19 00:32:00,54.0,14.0,-100.00,ENE,77,15.0,24.0,20,-99.99,,,-99.99,,2013-01-19 08:32:00,
2013-01-19 00:42:00,54.0,14.0,-100.00,East,81,14.0,24.0,20,-99.99,,,-99.99,,2013-01-19 08:42:00,
2013-01-19 00:52:00,54.0,14.0,-100.00,East,80,13.0,21.0,20,-99.99,,,-99.99,,2013-01-19 08:52:00,
2013-01-19 01:02:00,54.0,14.0,-100.00,East,82,14.0,20.0,20,-99.99,,,-99.99,,2013-01-19 09:02:00,
2013-01-19 01:12:00,54.0,14.0,-100.00,East,85,13.0,21.0,20,-99.99,,,-99.99,,2013-01-19 09:12:00,
2013-01-19 01:22:00,54.0,14.0,-100.00,ESE,115,8.0,16.0,20,-99.99,,,-99.99,,2013-01-19 09:22:00,
2013-01-19 01:32:00,54.0,14.0,-100.00,SE,136,5.0,14.0,20,-99.99,,,-99.99,,2013-01-19 09:32:00,
2013-01-19 01:42:00,54.0,14.0,-100.00,ESE,121,6.0,18.0,20,-99.99,,,-99.99,,2013-01-19 09:42:00,
2013-01-19 01:52:00,54.0,14.0,-100.00,East,101,11.0,20.0,20,-99.99,,,-99.99,,2013-01-19 09:52:00,
2013-01-19 02:02:00,55.0,15.0,-100.00,East,80,14.0,23.0,20,-99.99,,,-99.99,,2013-01-19 10:02:00,
2013-01-19 02:12:00,55.0,15.0,-100.00,East,83,13.0,21.0,20,-99.99,,,-99.99,,2013-01-19 10:12:00,
2013-01-19 02:22:00,54.0,14.0,-100.00,East,80,14.0,22.0,20,-99.99,,,-99.99,,2013-01-19 10:22:00,
2013-01-19 02:32:00,54.0,14.0,-100.00,East,80,13.0,21.0,20,-99.99,,,-99.99,,2013-01-19 10:32:00,
2013-01-19 02:42:00,54.0,14.0,-100.00,East,86,14.0,22.0,20,-99.99,,,-99.99,,2013-01-19 10:42:00,
2013-01-19 02:52:00,54.0,14.0,-100.00,East,84,15.0,23.0,20,-99.99,,,-99.99,,2013-01-19 10:52:00,
2013-01-19 03:02:00,54.0,13.0,-100.00,East,84,12.0,21.0,19,-99.99,,,-99.99,,2013-01-19 11:02:00,
2013-01-19 03:12:00,54.0,14.0,-100.00,East,82,12.0,20.0,20,-99.99,,,-99.99,,2013-01-19 11:12:00,
2013-01-19 04:52:00,53.0,13.0,-100.00,SE,127,7.0,14.0,20,-99.99,,,-99.99,,2013-01-19 12:52:00,
2013-01-19 05:02:00,54.0,14.0,-100.00,East,96,10.0,17.0,20,-99.99,,,-99.99,,2013-01-19 13:02:00,
2013-01-19 05:12:00,54.0,14.0,-100.00,East,83,13.0,22.0,20,-99.99,,,-99.99,,2013-01-19 13:12:00,
2013-01-19 05:22:00,54.0,14.0,-100.00,ENE,72,12.0,22.0,20,-99.99,,,-99.99,,2013-01-19 13:22:00,
2013-01-19 05:33:00,54.0,14.0,-100.00,ENE,75,13.0,21.0,20,-99.99,,,-99.99,,2013-01-19 13:33:00,
2013-01-19 05:42:00,54.0,14.0,-100.00,ENE,69,12.0,23.0,20,-99.99,,,-99.99,,2013-01-19 13:42:00,
2013-01-19 05:52:00,54.0,14.0,-100.00,ENE,75,15.0,24.0,20,-99.99,,,-99.99,,2013-01-19 13:52:00,
2013-01-19 06:02:00,54.0,14.0,-100.00,ENE,73,13.0,25.0,20,-99.99,,,-99.99,,2013-01-19 14:02:00,
2013-01-19 06:12:00,54.0,14.0,-100.00,ENE,77,15.0,25.0,20,-99.99,,,-99.99,,2013-01-19 14:12:00,
2013-01-19 06:22:00,54.0,14.0,-100.00,ENE,72,13.0,21.0,20,-99.99,,,-99.99,,2013-01-19 14:22:00,
2013-01-19 06:33:00,54.0,13.0,-100.00,ENE,72,13.0,23.0,19,-99.99,,,-99.99,,2013-01-19 14:33:00,
2013-01-19 06:42:00,54.0,13.0,-100.00,ENE,73,14.0,24.0,19,-99.99,,,-99.99,,2013-01-19 14:42:00,
2013-01-19 06:53:00,54.0,13.0,-100.00,ENE,72,14.0,22.0,19,-99.99,,,-99.99,,2013-01-19 14:53:00,
2013-01-19 07:02:00,54.0,13.0,-100.00,ENE,73,14.0,22.0,19,-99.99,,,-99.99,,2013-01-19 15:02:00,
2013-01-19 07:12:00,54.0,13.0,-100.00,ENE,74,13.0,24.0,19,-99.99,,,-99.99,,2013-01-19 15:12:00,
2013-01-19 07:22:00,54.0,13.0,-100.00,ENE,71,15.0,24.0,19,-99.99,,,-99.99,,2013-01-19 15:22:00,
2013-01-19 07:33:00,53.0,12.0,-100.00,ENE,73,13.0,25.0,19,-99.99,,,-99.99,,2013-01-19 15:33:00,
2013-01-19 07:42:00,54.0,13.0,-100.00,ENE,71,14.0,21.0,19,-99.99,,,-99.99,,2013-01-19 15:42:00,
2013-01-19 07:53:00,54.0,13.0,-100.00,ENE,74,15.0,23.0,19,-99.99,,,-99.99,,2013-01-19 15:53:00,
2013-01-19 08:02:00,54.0,13.0,-100.00,ENE,74,15.0,23.0,19,-99.99,,,-99.99,,2013-01-19 16:02:00,
2013-01-19 08:12:00,55.0,12.0,-100.00,ENE,76,15.0,27.0,18,-99.99,,,-99.99,,2013-01-19 16:12:00,
2013-01-19 08:23:00,55.0,12.0,-100.00,East,79,15.0,27.0,18,-99.99,,,-99.99,,2013-01-19 16:23:00,
2013-01-19 08:33:00,56.0,13.0,-100.00,East,80,17.0,27.0,18,-99.99,,,-99.99,,2013-01-19 16:33:00,
2013-01-19 08:42:00,56.0,13.0,-100.00,ENE,78,18.0,28.0,18,-99.99,,,-99.99,,2013-01-19 16:42:00,
2013-01-19 08:53:00,57.0,14.0,-100.00,East,79,17.0,27.0,18,-99.99,,,-99.99,,2013-01-19 16:53:00,
2013-01-19 09:02:00,57.0,13.0,-100.00,East,81,18.0,29.0,17,-99.99,,,-99.99,,2013-01-19 17:02:00,
2013-01-19 09:14:00,58.0,13.0,-100.00,East,79,19.0,29.0,17,-99.99,,,-99.99,,2013-01-19 17:14:00,
2013-01-19 09:33:00,59.0,14.0,-100.00,ENE,76,14.0,27.0,17,-99.99,,,-99.99,,2013-01-19 17:33:00,
2013-01-19 09:44:00,59.0,14.0,-100.00,ENE,76,14.0,27.0,17,-99.99,,,-99.99,,2013-01-19 17:44:00,
2013-01-19 09:53:00,60.0,15.0,-100.00,ENE,77,16.0,25.0,17,-99.99,,,-99.99,,2013-01-19 17:53:00,
2013-01-19 10:04:00,60.0,15.0,-100.00,East,82,15.0,24.0,17,-99.99,,,-99.99,,2013-01-19 18:04:00,
2013-01-19 10:13:00,60.0,15.0,-100.00,East,80,15.0,28.0,17,-99.99,,,-99.99,,2013-01-19 18:13:00,
2013-01-19 10:23:00,60.0,14.0,-100.00,East,83,16.0,26.0,16,-99.99,,,-99.99,,2013-01-19 18:23:00,
2013-01-19 10:43:00,61.0,14.0,-100.00,East,84,16.0,26.0,16,-99.99,,,-99.99,,2013-01-19 18:43:00,
2013-01-19 10:53:00,62.0,15.0,-100.00,East,86,14.0,24.0,16,-99.99,,,-99.99,,2013-01-19 18:53:00,
2013-01-19 11:04:00,62.0,15.0,-100.00,East,85,17.0,25.0,16,-99.99,,,-99.99,,2013-01-19 19:04:00,
2013-01-19 11:15:00,61.0,14.0,-100.00,East,87,19.0,29.0,16,-99.99,,,-99.99,,2013-01-19 19:15:00,
2013-01-19 11:25:00,62.0,15.0,-100.00,East,86,18.0,25.0,16,-99.99,,,-99.99,,2013-01-19 19:25:00,
2013-01-19 11:53:00,62.0,14.0,-100.00,East,88,20.0,27.0,15,-99.99,,,-99.99,,2013-01-19 19:53:00,
2013-01-19 12:05:00,62.0,14.0,-100.00,East,86,20.0,27.0,15,-99.99,,,-99.99,,2013-01-19 20:05:00,
2013-01-19 12:14:00,62.0,14.0,-100.00,East,85,18.0,26.0,15,-99.99,,,-99.99,,2013-01-19 20:14:00,
2013-01-19 12:23:00,63.0,15.0,-100.00,East,83,15.0,25.0,15,-99.99,,,-99.99,,2013-01-19 20:23:00,
2013-01-19 12:34:00,62.0,14.0,-100.00,East,84,19.0,26.0,15,-99.99,,,-99.99,,2013-01-19 20:34:00,
2013-01-19 12:44:00,63.0,15.0,-100.00,East,88,15.0,24.0,15,-99.99,,,-99.99,,2013-01-19 20:44:00,
2013-01-19 13:03:00,63.0,15.0,-100.00,ENE,78,17.0,23.0,15,-99.99,,,-99.99,,2013-01-19 21:03:00,
2013-01-19 13:23:00,63.0,15.0,-100.00,East,82,16.0,24.0,15,-99.99,,,-99.99,,2013-01-19 21:23:00,
2013-01-19 13:35:00,63.0,15.0,-100.00,East,85,17.0,25.0,15,-99.99,,,-99.99,,2013-01-19 21:35:00,
2013-01-19 13:46:00,63.0,15.0,-100.00,East,88,16.0,23.0,15,-99.99,,,-99.99,,2013-01-19 21:46:00,
2013-01-19 13:53:00,63.0,13.0,-100.00,East,85,17.0,25.0,14,-99.99,,,-99.99,,2013-01-19 21:53:00,
2013-01-19 14:05:00,64.0,15.0,-100.00,East,79,15.0,24.0,15,-99.99,,,-99.99,,2013-01-19 22:05:00,
2013-01-19 14:14:00,64.0,14.0,-100.00,East,85,16.0,24.0,14,-99.99,,,-99.99,,2013-01-19 22:14:00,
2013-01-19 14:24:00,64.0,14.0,-100.00,East,84,16.0,23.0,14,-99.99,,,-99.99,,2013-01-19 22:24:00,
2013-01-19 14:33:00,64.0,14.0,-100.00,East,84,15.0,23.0,14,-99.99,,,-99.99,,2013-01-19 22:33:00,
2013-01-19 14:54:00,63.0,13.0,-100.00,East,85,15.0,21.0,14,-99.99,,,-99.99,,2013-01-19 22:54:00,
2013-01-19 15:13:00,64.0,14.0,-100.00,East,87,15.0,21.0,14,-99.99,,,-99.99,,2013-01-19 23:13:00,
2013-01-19 15:24:00,64.0,14.0,-100.00,East,85,15.0,19.0,14,-99.99,,,-99.99,,2013-01-19 23:24:00,
2013-01-19 15:33:00,64.0,14.0,-100.00,East,85,15.0,21.0,14,-99.99,,,-99.99,,2013-01-19 23:33:00,
2013-01-19 15:44:00,64.0,14.0,-100.00,East,83,13.0,18.0,14,-99.99,,,-99.99,,2013-01-19 23:44:00,
2013-01-19 15:56:00,64.0,14.0,-100.00,East,84,13.0,20.0,14,-99.99,,,-99.99,,2013-01-19 23:56:00,
2013-01-19 16:06:00,63.0,13.0,-100.00,East,82,16.0,22.0,14,-99.99,,,-99.99,,2013-01-20 00:06:00,
2013-01-19 16:13:00,62.0,14.0,-100.00,East,83,16.0,22.0,15,-99.99,,,-99.99,,2013-01-20 00:13:00,
2013-01-19 16:23:00,62.0,14.0,-100.00,East,82,16.0,23.0,15,-99.99,,,-99.99,,2013-01-20 00:23:00,
2013-01-19 16:44:00,61.0,13.0,-100.00,East,81,15.0,22.0,15,-99.99,,,-99.99,,2013-01-20 00:44:00,
2013-01-19 16:53:00,60.0,12.0,-100.00,East,79,14.0,21.0,15,-99.99,,,-99.99,,2013-01-20 00:53:00,
2013-01-19 17:03:00,59.0,11.0,-100.00,East,80,15.0,22.0,15,-99.99,,,-99.99,,2013-01-20 01:03:00,
2013-01-19 17:15:00,59.0,13.0,-100.00,East,82,15.0,24.0,16,-99.99,,,-99.99,,2013-01-20 01:15:00,
2013-01-19 17:33:00,57.0,11.0,-100.00,East,79,14.0,21.0,16,-99.99,,,-99.99,,2013-01-20 01:33:00,
2013-01-19 17:55:00,56.0,12.0,-100.00,ENE,77,12.0,19.0,17,-99.99,,,-99.99,,2013-01-20 01:55:00,
2013-01-19 18:03:00,56.0,12.0,-100.00,ENE,77,12.0,19.0,17,-99.99,,,-99.99,,2013-01-20 02:03:00,
2013-01-19 18:13:00,55.0,11.0,-100.00,ENE,77,14.0,27.0,17,-99.99,,,-99.99,,2013-01-20 02:13:00,
2013-01-19 18:23:00,55.0,11.0,-100.00,ENE,77,12.0,20.0,17,-99.99,,,-99.99,,2013-01-20 02:23:00,
2013-01-19 18:34:00,55.0,11.0,-100.00,ENE,76,12.0,20.0,17,-99.99,,,-99.99,,2013-01-20 02:34:00,
2013-01-19 18:43:00,55.0,10.0,-100.00,East,80,15.0,25.0,16,-99.99,,,-99.99,,2013-01-20 02:43:00,
2013-01-19 18:54:00,55.0,10.0,-100.00,East,79,16.0,27.0,16,-99.99,,,-99.99,,2013-01-20 02:54:00,
2013-01-19 19:05:00,55.0,10.0,-100.00,East,80,15.0,26.0,16,-99.99,,,-99.99,,2013-01-20 03:05:00,
2013-01-19 19:13:00,55.0,10.0,-100.00,East,80,17.0,25.0,16,-99.99,,,-99.99,,2013-01-20 03:13:00,
2013-01-19 19:22:00,55.0,10.0,-100.00,East,83,17.0,25.0,16,-99.99,,,-99.99,,2013-01-20 03:22:00,
2013-01-19 19:34:00,55.0,10.0,-100.00,East,81,14.0,23.0,16,-99.99,,,-99.99,,2013-01-20 03:34:00,
2013-01-19 19:44:00,55.0,10.0,-100.00,East,80,15.0,25.0,16,-99.99,,,-99.99,,2013-01-20 03:44:00,
2013-01-19 19:53:00,55.0,10.0,-100.00,East,83,16.0,26.0,16,-99.99,,,-99.99,,2013-01-20 03:53:00,
2013-01-19 20:03:00,55.0,10.0,-100.00,East,82,16.0,23.0,16,-99.99,,,-99.99,,2013-01-20 04:03:00,
2013-01-19 20:14:00,56.0,10.0,-100.00,East,80,17.0,24.0,16,-99.99,,,-99.99,,2013-01-20 04:14:00,
2013-01-19 20:23:00,56.0,10.0,-100.00,ENE,78,14.0,25.0,16,-99.99,,,-99.99,,2013-01-20 04:23:00,
2013-01-19 20:33:00,55.0,10.0,-100.00,East,80,14.0,24.0,16,-99.99,,,-99.99,,2013-01-20 04:33:00,
2013-01-19 20:43:00,55.0,10.0,-100.00,East,79,12.0,19.0,16,-99.99,,,-99.99,,2013-01-20 04:43:00,
2013-01-19 20:53:00,55.0,10.0,-100.00,East,87,10.0,17.0,16,-99.99,,,-99.99,,2013-01-20 04:53:00,
2013-01-19 21:02:00,54.0,10.0,-100.00,East,88,7.0,14.0,17,-99.99,,,-99.99,,2013-01-20 05:02:00,
2013-01-19 21:12:00,54.0,10.0,-100.00,SE,144,3.0,9.0,17,-99.99,,,-99.99,,2013-01-20 05:12:00,
2013-01-19 21:22:00,54.0,10.0,-100.00,SE,144,3.0,12.0,17,-99.99,,,-99.99,,2013-01-20 05:22:00,
2013-01-19 21:32:00,54.0,9.0,-100.00,WNW,295,1.0,4.0,16,-99.99,,,-99.99,,2013-01-20 05:32:00,
2013-01-19 21:42:00,54.0,10.0,-100.00,SSW,206,4.0,8.0,17,-99.99,,,-99.99,,2013-01-20 05:42:00,
2013-01-19 21:52:00,55.0,10.0,-100.00,SSW,196,5.0,8.0,16,-99.99,,,-99.99,,2013-01-20 05:52:00,
2013-01-19 22:02:00,54.0,10.0,-100.00,SSW,198,5.0,8.0,17,-99.99,,,-99.99,,2013-01-20 06:02:00,
2013-01-19 22:11:00,54.0,10.0,-100.00,South,173,2.0,6.0,17,-99.99,,,-99.99,,2013-01-20 06:11:00,
2013-01-19 22:22:00,54.0,10.0,-100.00,SSE,158,3.0,6.0,17,-99.99,,,-99.99,,2013-01-20 06:22:00,
2013-01-19 22:32:00,53.0,9.0,-100.00,SSE,149,3.0,7.0,17,-99.99,,,-99.99,,2013-01-20 06:32:00,
2013-01-19 22:42:00,53.0,9.0,-100.00,SSE,149,3.0,7.0,17,-99.99,,,-99.99,,2013-01-20 06:42:00,
2013-01-19 22:52:00,54.0,10.0,-100.00,SSE,152,4.0,7.0,17,-99.99,,,-99.99,,2013-01-20 06:52:00,
2013-01-19 23:02:00,54.0,10.0,-100.00,SSE,152,4.0,7.0,17,-99.99,,,-99.99,,2013-01-20 07:02:00,
2013-01-19 23:11:00,53.0,9.0,-100.00,SE,136,3.0,9.0,17,-99.99,,,-99.99,,2013-01-20 07:11:00,
2013-01-19 23:22:00,53.0,9.0,-100.00,SE,131,3.0,9.0,17,-99.99,,,-99.99,,2013-01-20 07:22:00,
2013-01-19 23:32:00,52.0,10.0,-100.00,SE,143,3.0,6.0,18,-99.99,,,-99.99,,2013-01-20 07:32:00,
2013-01-19 23:42:00,52.0,10.0,-100.00,SE,143,3.0,6.0,18,-99.99,,,-99.99,,2013-01-20 07:42:00,
2013-01-19 23:52:00,52.0,10.0,-100.00,SE,140,3.0,5.0,18,-99.99,,,-99.99,,2013-01-20 07:52:00,